Time;durP1;ratioP1;P1;durP2;ratioP2;P2;SDS_P1;SDS_P2;PMS_P1;PMS_P2;Temp;Humidity;BMP_temperature;BMP_pressure;BME280_temperature;BME280_humidity;BME280_pressure;Samples;Min_cycle;Max_cycle;Signal;HPM_P1;HPM_P2
2022/05/06 00:00:12;;;;;;;;;;;;;;;18.64;46.60;102653.25;6134962;23;20242;-78
2022/05/06 00:02:38;;;;;;;;;;;;;;;18.64;46.81;102649.75;6134910;23;19908;-78
2022/05/06 00:05:04;;;;;;;;;;;;;;;18.64;46.84;102653.25;6135442;23;19916;-78
2022/05/06 00:07:29;;;;;;;;;;;;;;;18.65;46.83;102656.72;6161918;23;19909;-78
2022/05/06 00:09:55;;;;;;;;;;;;;;;18.63;46.91;102654.09;6112435;23;19913;-78
2022/05/06 00:12:20;;;;;;;;;;;;;;;18.63;46.64;102646.25;6115003;23;19913;-79
2022/05/06 00:14:46;;;;;;;;;;;;;;;18.63;46.76;102648.88;6168799;23;19913;-78
2022/05/06 00:17:11;;;;;;;;;;;;;;;18.64;46.75;102649.75;6144916;23;19908;-78
2022/05/06 00:19:37;;;;;;;;;;;;;;;18.63;46.88;102638.44;6145583;23;19912;-78
2022/05/06 00:22:02;;;;;;;;;;;;;;;18.63;46.71;102641.06;6115124;23;19993;-78
2022/05/06 00:24:28;;;;;;;;;;;;;;;18.64;46.91;102644.53;6112086;23;19944;-78
2022/05/06 00:26:54;;;;;;;;;;;;;;;18.63;46.74;102641.06;6136516;23;19931;-78
2022/05/06 00:29:19;;;;;;;;;;;;;;;18.63;46.84;102637.56;6137161;23;20302;-78
2022/05/06 00:31:44;;;;;;;;;;;;;;;18.62;46.79;102634.09;6136534;23;20031;-78
2022/05/06 00:34:10;;;;;;;;;;;;;;;18.63;46.85;102635.84;6162760;23;19916;-78
2022/05/06 00:36:36;;;;;;;;;;;;;;;18.63;46.89;102624.53;6112875;23;19995;-78
2022/05/06 00:39:01;;;;;;;;;;;;;;;18.62;46.70;102633.22;6114360;23;19916;-79
2022/05/06 00:41:26;;;;;;;;;;;;;;;18.63;46.74;102637.56;6113771;23;19913;-78
2022/05/06 00:43:51;;;;;;;;;;;;;;;18.62;46.85;102631.50;6113961;23;19961;-78
2022/05/06 00:46:17;;;;;;;;;;;;;;;18.63;46.90;102633.22;6139407;23;19912;-78
2022/05/06 00:48:46;;;;;;;;;;;;;;;18.62;46.74;102636.69;6138822;23;19909;-78
2022/05/06 00:51:12;;;;;;;;;;;;;;;18.61;46.85;102632.31;6112772;23;19913;-78
2022/05/06 00:53:37;;;;;;;;;;;;;;;18.62;46.90;102630.63;6161296;23;19915;-78
2022/05/06 00:56:04;;;;;;;;;;;;;;;18.61;46.81;102637.53;6136275;23;20215;-78
2022/05/06 00:58:33;;;;;;;;;;;;;;;18.62;46.69;102635.84;6136681;23;19909;-78
2022/05/06 01:00:58;;;;;;;;;;;;;;;18.62;46.87;102644.53;6135682;23;19951;-78
2022/05/06 01:03:23;;;;;;;;;;;;;;;18.61;46.74;102645.38;6135681;23;19909;-78
2022/05/06 01:05:49;;;;;;;;;;;;;;;18.61;46.71;102645.38;6135073;23;20262;-78
2022/05/06 01:08:15;;;;;;;;;;;;;;;18.60;46.86;102648.84;6134273;23;19916;-78
2022/05/06 01:10:41;;;;;;;;;;;;;;;18.60;46.88;102641.03;6133958;23;19980;-78
2022/05/06 01:13:06;;;;;;;;;;;;;;;18.61;46.73;102641.88;6134029;23;19916;-78
2022/05/06 01:15:32;;;;;;;;;;;;;;;18.60;46.71;102646.22;6110034;23;19912;-78
2022/05/06 01:17:57;;;;;;;;;;;;;;;18.60;46.75;102651.44;6134359;23;19915;-78
2022/05/06 01:20:23;;;;;;;;;;;;;;;18.60;46.78;102648.84;6109093;23;20326;-78
2022/05/06 01:22:53;;;;;;;;;;;;;;;18.61;46.73;102650.59;6159895;23;19940;-78
2022/05/06 01:25:19;;;;;;;;;;;;;;;18.60;46.67;102651.44;6160673;23;19909;-78
2022/05/06 01:27:45;;;;;;;;;;;;;;;18.60;46.89;102651.44;6109356;23;19912;-78
2022/05/06 01:30:16;;;;;;;;;;;;;;;18.59;46.61;102647.06;6132954;23;19916;-78
2022/05/06 01:32:41;;;;;;;;;;;;;;;18.60;46.72;102647.97;6133358;23;19908;-78
2022/05/06 01:35:07;;;;;;;;;;;;;;;18.59;46.88;102643.59;6109251;23;19917;-78
2022/05/06 01:37:34;;;;;;;;;;;;;;;18.59;46.84;102638.38;6133759;23;19909;-78
2022/05/06 01:40:01;;;;;;;;;;;;;;;18.59;46.77;102641.84;6134465;23;20253;-78
2022/05/06 01:42:29;;;;;;;;;;;;;;;18.58;46.83;102642.72;6134591;23;19915;-78
2022/05/06 01:44:55;;;;;;;;;;;;;;;18.58;46.69;102634.91;6135223;23;19956;-78
2022/05/06 01:47:25;;;;;;;;;;;;;;;18.59;46.79;102638.38;6135451;23;19915;-78
2022/05/06 01:49:52;;;;;;;;;;;;;;;18.59;46.65;102630.56;6159481;23;19912;-78
2022/05/06 01:52:17;;;;;;;;;;;;;;;18.58;46.65;102637.50;6137333;23;19910;-78
2022/05/06 01:54:43;;;;;;;;;;;;;;;18.58;46.64;102640.13;6115134;23;19920;-78
2022/05/06 01:57:08;;;;;;;;;;;;;;;18.58;46.68;102642.72;6165134;23;19939;-78
2022/05/06 01:59:34;;;;;;;;;;;;;;;18.58;46.77;102650.53;6115172;23;19923;-78
2022/05/06 02:01:59;;;;;;;;;;;;;;;18.57;46.93;102643.56;6112505;23;19991;-78
2022/05/06 02:07:08;;;;;;;;;;;;;;;18.58;46.67;102649.69;6142225;23;19927;-78
2022/05/06 02:09:33;;;;;;;;;;;;;;;18.57;46.71;102646.16;6137704;23;20233;-78
2022/05/06 02:11:59;;;;;;;;;;;;;;;18.58;46.77;102652.28;6113595;23;19912;-78
2022/05/06 02:14:24;;;;;;;;;;;;;;;18.57;46.78;102647.91;6113043;23;19999;-78
2022/05/06 02:16:49;;;;;;;;;;;;;;;18.58;46.69;102644.47;6138209;23;20233;-79
2022/05/06 02:19:14;;;;;;;;;;;;;;;18.57;46.62;102654.00;6113535;23;20329;-78
2022/05/06 02:21:40;;;;;;;;;;;;;;;18.57;46.64;102658.34;6113143;23;20352;-78
2022/05/06 02:24:05;;;;;;;;;;;;;;;18.56;46.79;102660.06;6137116;23;19917;-78
2022/05/06 02:26:31;;;;;;;;;;;;;;;18.57;46.78;102671.38;6138214;23;19920;-78
2022/05/06 02:28:56;;;;;;;;;;;;;;;18.57;46.60;102674.84;6112820;23;19996;-78
2022/05/06 02:34:05;;;;;;;;;;;;;;;18.56;46.73;102662.69;6160994;23;19916;-78
2022/05/06 02:36:30;;;;;;;;;;;;;;;18.56;46.67;102667.91;6110702;23;19920;-78
2022/05/06 02:38:56;;;;;;;;;;;;;;;18.56;46.70;102667.91;6111411;23;19962;-78
2022/05/06 02:41:21;;;;;;;;;;;;;;;18.55;46.63;102660.91;6161650;23;19915;-78
2022/05/06 02:43:47;;;;;;;;;;;;;;;18.55;46.81;102660.03;6113204;23;19922;-78
2022/05/06 02:46:12;;;;;;;;;;;;;;;18.54;46.72;102660.91;6138265;23;19913;-78
2022/05/06 02:48:37;;;;;;;;;;;;;;;18.55;46.74;102660.91;6113139;23;20285;-78
2022/05/06 02:51:02;;;;;;;;;;;;;;;18.54;46.76;102660.91;6113258;23;19913;-78
2022/05/06 02:53:28;;;;;;;;;;;;;;;18.55;46.80;102654.81;6113443;23;19913;-78
2022/05/06 02:55:53;;;;;;;;;;;;;;;18.53;46.66;102657.44;6114263;23;19919;-78
2022/05/06 02:58:18;;;;;;;;;;;;;;;18.53;46.75;102652.22;6113542;23;19941;-78
2022/05/06 03:00:43;;;;;;;;;;;;;;;18.53;46.58;102644.41;6139007;23;19917;-78
2022/05/06 03:03:09;;;;;;;;;;;;;;;18.53;46.82;102651.31;6142162;23;19912;-79
2022/05/06 03:05:34;;;;;;;;;;;;;;;18.53;46.61;102648.72;6119993;23;19928;-78
2022/05/06 03:07:59;;;;;;;;;;;;;;;18.54;46.45;102647.88;6118960;23;19936;-78
2022/05/06 03:10:25;;;;;;;;;;;;;;;18.52;46.77;102645.22;6116353;23;19981;-78
2022/05/06 03:12:55;;;;;;;;;;;;;;;18.53;46.64;102651.31;6138390;23;20344;-78
2022/05/06 03:15:20;;;;;;;;;;;;;;;18.53;46.81;102643.50;6163895;23;19908;-78
2022/05/06 03:17:46;;;;;;;;;;;;;;;18.52;46.63;102650.44;6137862;23;19923;-78
2022/05/06 03:20:11;;;;;;;;;;;;;;;18.52;46.73;102649.56;6113102;23;19943;-78
2022/05/06 03:22:41;;;;;;;;;;;;;;;18.52;46.61;102649.56;6114098;23;19919;-78
2022/05/06 03:25:07;;;;;;;;;;;;;;;18.51;46.67;102643.50;6136935;23;20437;-78
2022/05/06 03:30:16;;;;;;;;;;;;;;;18.52;46.75;102639.16;6139999;23;19920;-78
2022/05/06 03:32:42;;;;;;;;;;;;;;;18.50;46.59;102637.38;6137185;23;19909;-78
2022/05/06 03:35:07;;;;;;;;;;;;;;;18.51;46.60;102640.88;6113021;23;19924;-78
2022/05/06 03:37:34;;;;;;;;;;;;;;;18.50;46.53;102631.28;6112611;23;19912;-78
2022/05/06 03:39:59;;;;;;;;;;;;;;;18.51;46.73;102638.28;6137149;23;19923;-78
2022/05/06 03:42:24;;;;;;;;;;;;;;;18.50;46.54;102631.28;6113239;23;19937;-78
2022/05/06 03:44:49;;;;;;;;;;;;;;;18.50;46.58;102631.28;6136230;23;20360;-78
2022/05/06 03:47:15;;;;;;;;;;;;;;;18.50;46.68;102636.50;6111883;23;19920;-78
2022/05/06 03:49:40;;;;;;;;;;;;;;;18.50;46.75;102636.50;6111370;23;19919;-78
2022/05/06 03:52:06;;;;;;;;;;;;;;;18.50;46.44;102631.28;6162926;23;19936;-78
2022/05/06 03:54:33;;;;;;;;;;;;;;;18.50;46.52;102636.50;6135616;23;19913;-78
2022/05/06 03:56:58;;;;;;;;;;;;;;;18.49;46.54;102634.78;6109331;23;20218;-78
2022/05/06 03:59:24;;;;;;;;;;;;;;;18.49;46.63;102635.63;6158679;23;19948;-78
2022/05/06 04:01:49;;;;;;;;;;;;;;;18.49;46.71;102630.44;6159068;23;20360;-78
2022/05/06 04:04:15;;;;;;;;;;;;;;;18.49;46.60;102640.84;6133483;23;20321;-78
2022/05/06 04:06:41;;;;;;;;;;;;;;;18.49;46.36;102646.06;6133276;23;19921;-78
2022/05/06 04:09:07;;;;;;;;;;;;;;;18.49;46.58;102647.81;6109548;23;20296;-78
2022/05/06 04:11:32;;;;;;;;;;;;;;;18.49;46.56;102653.03;6133727;23;19908;-78
2022/05/06 04:13:57;;;;;;;;;;;;;;;18.49;46.53;102651.28;6109473;23;19912;-78
2022/05/06 04:16:27;;;;;;;;;;;;;;;18.49;46.54;102650.41;6133897;23;19987;-77
2022/05/06 04:18:52;;;;;;;;;;;;;;;18.48;46.53;102646.91;6134237;23;19915;-78
2022/05/06 04:24:02;;;;;;;;;;;;;;;18.48;46.67;102656.47;6138206;23;19963;-78
2022/05/06 04:26:27;;;;;;;;;;;;;;;18.47;46.62;102657.34;6109201;23;20333;-78
2022/05/06 04:28:52;;;;;;;;;;;;;;;18.47;46.53;102654.72;6133272;23;19915;-78
2022/05/06 04:31:17;;;;;;;;;;;;;;;18.48;46.63;102648.63;6109471;23;19912;-78
2022/05/06 04:33:43;;;;;;;;;;;;;;;18.47;46.42;102649.50;6133456;23;20007;-78
2022/05/06 04:36:09;;;;;;;;;;;;;;;18.48;46.63;102656.47;6159654;23;19912;-78
2022/05/06 04:38:35;;;;;;;;;;;;;;;18.48;46.66;102659.06;6109713;23;19917;-78
2022/05/06 04:41:01;;;;;;;;;;;;;;;18.47;46.46;102653.00;6158603;23;19921;-78
2022/05/06 04:43:26;;;;;;;;;;;;;;;18.48;46.59;102659.06;6107813;23;19993;-78
2022/05/06 04:45:52;;;;;;;;;;;;;;;18.48;46.45;102659.06;6132285;23;19944;-78
2022/05/06 04:48:18;;;;;;;;;;;;;;;18.48;46.60;102661.69;6133084;23;19908;-78
2022/05/06 04:50:47;;;;;;;;;;;;;;;18.47;46.46;102676.44;6108603;23;19912;-78
2022/05/06 04:53:13;;;;;;;;;;;;;;;18.47;46.41;102667.75;6110564;23;19920;-78
2022/05/06 04:55:39;;;;;;;;;;;;;;;18.48;46.56;102667.75;6134048;23;19908;-78
2022/05/06 04:58:05;;;;;;;;;;;;;;;18.48;46.47;102672.09;6110318;23;19917;-78
2022/05/06 05:00:31;;;;;;;;;;;;;;;18.47;46.24;102670.38;6160533;23;19916;-78
2022/05/06 05:03:00;;;;;;;;;;;;;;;18.46;46.45;102669.47;6136460;23;19931;-78
2022/05/06 05:05:26;;;;;;;;;;;;;;;18.47;46.44;102668.63;6138100;23;20007;-78
2022/05/06 05:07:51;;;;;;;;;;;;;;;18.46;46.47;102676.41;6139180;23;19916;-78
2022/05/06 05:10:17;;;;;;;;;;;;;;;18.47;46.41;102667.75;6113331;23;19935;-77
2022/05/06 05:12:42;;;;;;;;;;;;;;;18.46;46.37;102679.91;6138270;23;19912;-78
2022/05/06 05:15:08;;;;;;;;;;;;;;;18.47;46.42;102676.44;6112887;23;19919;-78
2022/05/06 05:17:33;;;;;;;;;;;;;;;18.48;46.57;102683.41;6113517;23;19919;-78
2022/05/06 05:19:58;;;;;;;;;;;;;;;18.47;46.40;102681.66;6135757;23;19921;-78
2022/05/06 05:22:24;;;;;;;;;;;;;;;18.48;46.26;102683.41;6134149;23;20418;-78
2022/05/06 05:24:49;;;;;;;;;;;;;;;18.47;46.40;102681.66;6162555;23;19915;-78
2022/05/06 05:27:15;;;;;;;;;;;;;;;18.48;46.31;102683.41;6137022;23;19943;-78
2022/05/06 05:29:41;;;;;;;;;;;;;;;18.47;46.48;102692.09;6137427;23;20214;-78
2022/05/06 05:32:06;;;;;;;;;;;;;;;18.48;46.38;102693.84;6135608;23;19915;-78
2022/05/06 05:34:32;;;;;;;;;;;;;;;18.48;46.33;102690.34;6111514;23;19924;-78
2022/05/06 05:36:57;;;;;;;;;;;;;;;18.49;46.40;102681.69;6111133;23;20339;-78
2022/05/06 05:39:22;;;;;;;;;;;;;;;18.49;46.52;102686.91;6160956;23;19913;-77
2022/05/06 05:41:48;;;;;;;;;;;;;;;18.50;46.29;102686.03;6111237;23;19952;-78
2022/05/06 05:49:41;;;;;;;;;;;;;;;18.53;46.08;102687.81;6144545;23;19920;-79
2022/05/06 05:52:06;;;;;;;;;;;;;;;18.53;46.21;102688.72;6117871;23;19913;-78
2022/05/06 05:54:32;;;;;;;;;;;;;;;18.55;46.20;102686.13;6115917;23;19912;-78
2022/05/06 05:56:57;;;;;;;;;;;;;;;18.55;46.33;102681.78;6113430;23;19912;-78
2022/05/06 05:59:25;;;;;;;;;;;;;;;18.57;46.40;102685.28;6113035;23;19916;-78
2022/05/06 06:01:51;;;;;;;;;;;;;;;18.60;46.34;102684.47;6136463;23;19915;-78
2022/05/06 06:04:16;;;;;;;;;;;;;;;18.61;46.09;102681.00;6134317;23;19984;-78
2022/05/06 06:06:42;;;;;;;;;;;;;;;18.63;46.30;102692.34;6159635;23;20376;-78
2022/05/06 06:09:08;;;;;;;;;;;;;;;18.63;46.23;102693.19;6110427;23;19912;-78
2022/05/06 06:11:35;;;;;;;;;;;;;;;18.62;46.28;102688.00;6160998;23;19987;-78
2022/05/06 06:14:00;;;;;;;;;;;;;;;18.61;46.31;102697.50;6108094;23;19913;-78
2022/05/06 06:16:26;;;;;;;;;;;;;;;18.61;46.43;102686.22;6131838;23;19918;-78
2022/05/06 06:18:51;;;;;;;;;;;;;;;18.60;46.39;102687.09;6108490;23;19913;-77
2022/05/06 06:21:17;;;;;;;;;;;;;;;18.60;46.16;102680.13;6133045;23;19909;-78
2022/05/06 06:23:42;;;;;;;;;;;;;;;18.60;46.18;102687.94;6108741;23;19967;-77
2022/05/06 06:26:07;;;;;;;;;;;;;;;18.61;46.13;102692.28;6108734;23;19912;-78
2022/05/06 06:28:33;;;;;;;;;;;;;;;18.62;46.39;102693.19;6108436;23;20344;-78
2022/05/06 06:30:58;;;;;;;;;;;;;;;18.62;46.28;102683.66;6108485;23;19948;-78
2022/05/06 06:33:23;;;;;;;;;;;;;;;18.65;46.37;102693.25;6108346;23;19912;-78
2022/05/06 06:43:34;;;;;;;;;;;;;;;18.72;46.31;102697.69;6158720;23;19905;-85
2022/05/06 06:46:07;;;;;;;;;;;;;;;18.73;46.06;102694.25;6128085;23;19921;-85
2022/05/06 06:48:33;;;;;;;;;;;;;;;18.79;46.02;102694.38;6129403;23;19909;-85
2022/05/06 06:50:58;;;;;;;;;;;;;;;18.79;46.05;102694.38;6129612;23;19916;-84
2022/05/06 06:53:24;;;;;;;;;;;;;;;18.87;46.07;102699.69;6129999;23;19929;-85
2022/05/06 06:55:50;;;;;;;;;;;;;;;18.93;45.98;102693.69;6129885;23;19940;-84
2022/05/06 06:58:15;;;;;;;;;;;;;;;18.97;45.89;102692.88;6130020;23;19913;-85
2022/05/06 07:00:42;;;;;;;;;;;;;;;19.00;45.93;102699.00;6129746;23;19917;-86
2022/05/06 07:03:08;;;;;;;;;;;;;;;19.04;45.84;102695.59;6154997;23;19913;-85
2022/05/06 07:05:33;;;;;;;;;;;;;;;19.08;45.76;102701.72;6129929;23;19893;-86
2022/05/06 07:13:30;;;;;;;;;;;;;;;19.15;45.50;102687.91;6133806;23;19924;-85
2022/05/06 07:15:58;;;;;;;;;;;;;;;19.17;45.45;102698.38;6130516;23;19924;-85
2022/05/06 07:18:23;;;;;;;;;;;;;;;19.17;45.46;102685.31;6129826;23;19901;-85
2022/05/06 07:20:49;;;;;;;;;;;;;;;19.17;45.44;102685.31;6129389;23;19920;-85
2022/05/06 07:23:14;;;;;;;;;;;;;;;19.17;45.32;102683.56;6129328;23;19915;-84
2022/05/06 07:25:40;;;;;;;;;;;;;;;19.16;45.40;102684.41;6124492;23;20787;-83
2022/05/06 07:28:18;;;;;;;;;;;;;;;19.16;45.45;102689.63;6158075;23;19916;-83
2022/05/06 07:30:44;;;;;;;;;;;;;;;19.15;45.48;102690.50;6159836;23;19897;-84
2022/05/06 07:33:11;;;;;;;;;;;;;;;19.16;45.40;102687.03;6160279;23;19931;-84
2022/05/06 07:35:38;;;;;;;;;;;;;;;19.17;45.45;102685.31;6135532;23;19901;-86
2022/05/06 07:38:04;;;;;;;;;;;;;;;19.17;45.41;102690.53;6159992;23;19912;-84
2022/05/06 07:40:32;;;;;;;;;;;;;;;19.20;45.45;102688.81;6185608;23;19929;-85
2022/05/06 07:43:00;;;;;;;;;;;;;;;19.22;45.32;102692.34;6135951;23;19908;-83
2022/05/06 07:50:43;;;;;;;;;;;;;;;19.26;45.33;102683.69;6128199;23;20514;-83
2022/05/06 08:13:51;;;;;;;;;;;;;;;19.30;45.22;102671.56;6165949;23;19928;-84
2022/05/06 08:16:16;;;;;;;;;;;;;;;19.28;45.32;102663.72;6158994;23;19908;-84
2022/05/06 08:18:42;;;;;;;;;;;;;;;19.27;45.45;102659.34;6159223;23;19940;-84
2022/05/06 08:21:07;;;;;;;;;;;;;;;19.27;45.54;102667.19;6159492;23;19900;-84
2022/05/06 09:09:18;;;;;;;;;;;;;;;19.31;45.61;102666.38;6178062;23;19920;-84
2022/05/06 09:27:39;;;;;;;;;;;;;;;19.29;45.50;102656.75;6126781;23;19979;-82
2022/05/06 10:11:51;;;;;;;;;;;;;;;19.21;45.79;102643.63;6149303;23;19911;-83
2022/05/06 10:14:20;;;;;;;;;;;;;;;19.21;45.86;102643.63;6094780;23;20226;-85
2022/05/06 10:16:49;;;;;;;;;;;;;;;19.22;45.80;102641.88;6126005;23;19928;-85
2022/05/06 10:19:27;;;;;;;;;;;;;;;19.22;45.96;102641.88;6116655;23;19922;-85
2022/05/06 10:21:53;;;;;;;;;;;;;;;19.21;45.92;102634.91;6124468;23;19925;-87
2022/05/06 10:42:59;;;;;;;;;;;;;;;19.18;46.04;102630.50;6145133;23;20581;31
2022/05/06 10:45:46;;;;;;;;;;;;;;;19.19;46.00;102626.19;6085057;23;20604;31
2022/05/06 10:48:19;;;;;;;;;;;;;;;19.18;46.01;102627.91;6153305;23;19921;-83
2022/05/06 11:16:41;;;;;;;;;;;;;;;19.19;45.85;102618.38;6172293;23;19906;-85
2022/05/06 11:37:30;;;;;;;;;;;;;;;19.20;45.92;102607.91;6168268;23;19905;-82
2022/05/06 11:42:42;;;;;;;;;;;;;;;19.22;45.78;102610.56;6154264;23;19912;-83
2022/05/06 12:01:47;;;;;;;;;;;;;;;19.23;45.79;102592.31;6143954;23;19948;-82
2022/05/06 12:06:50;;;;;;;;;;;;;;;19.24;45.79;102594.06;6212358;23;19948;-83
2022/05/06 12:17:06;;;;;;;;;;;;;;;19.26;45.84;102600.16;6148328;23;20710;-84
2022/05/06 12:22:14;;;;;;;;;;;;;;;19.28;45.86;102605.41;6176120;23;19920;-84
2022/05/06 12:24:41;;;;;;;;;;;;;;;19.28;45.82;102610.63;6136124;23;19924;-84
2022/05/06 12:27:08;;;;;;;;;;;;;;;19.28;45.83;102611.50;6155813;23;19921;-82
2022/05/06 12:29:38;;;;;;;;;;;;;;;19.29;45.78;102599.31;6158282;23;19907;-84
2022/05/06 12:39:48;;;;;;;;;;;;;;;19.32;45.86;102601.97;6162285;23;19905;-84
2022/05/06 13:07:35;;;;;;;;;;;;;;;19.39;45.78;102605.53;6155113;23;19935;-83
2022/05/06 13:10:01;;;;;;;;;;;;;;;19.40;45.94;102591.59;6153220;23;19921;-84
2022/05/06 13:12:26;;;;;;;;;;;;;;;19.41;45.84;102606.44;6159201;23;19897;-85
2022/05/06 13:27:03;;;;;;;;;;;;;;;19.43;45.82;102587.31;6172664;23;19947;-84
2022/05/06 13:32:31;;;;;;;;;;;;;;;19.45;45.95;102582.97;6137152;23;19943;-82
2022/05/06 13:45:16;;;;;;;;;;;;;;;19.49;46.05;102563.00;6160644;23;19904;-85
2022/05/06 13:47:42;;;;;;;;;;;;;;;19.49;45.80;102563.88;6158829;23;19969;-83
2022/05/06 13:50:10;;;;;;;;;;;;;;;19.50;45.82;102555.16;6158266;23;19909;-85
2022/05/06 13:52:39;;;;;;;;;;;;;;;19.51;45.91;102550.81;6154789;23;19952;-83
2022/05/06 13:55:05;;;;;;;;;;;;;;;19.51;45.86;102550.81;6156579;23;19901;-85
2022/05/06 14:00:15;;;;;;;;;;;;;;;19.53;45.85;102541.25;6183504;23;19904;-84
2022/05/06 14:02:41;;;;;;;;;;;;;;;19.53;45.95;102542.16;6158275;23;19916;-84
2022/05/06 14:05:06;;;;;;;;;;;;;;;19.55;45.94;102546.50;6158260;23;19909;-84
2022/05/06 14:07:32;;;;;;;;;;;;;;;19.55;46.00;102539.53;6184177;23;19896;-83
2022/05/06 14:09:58;;;;;;;;;;;;;;;19.56;46.07;102551.75;6158426;23;19917;-85
2022/05/06 14:20:09;;;;;;;;;;;;;;;19.59;45.87;102548.28;6150720;23;19921;-85
2022/05/06 14:22:34;;;;;;;;;;;;;;;19.59;45.98;102554.38;6158586;23;19940;-85
2022/05/06 14:27:35;;;;;;;;;;;;;;;19.61;45.97;102547.44;6159077;23;19915;-85
2022/05/06 14:30:01;;;;;;;;;;;;;;;19.61;45.94;102551.78;6141295;23;19906;-83
2022/05/06 14:35:33;;;;;;;;;;;;;;;19.62;46.05;102550.91;6157443;23;20002;31
2022/05/06 14:43:09;;;;;;;;;;;;;;;19.63;45.91;102543.09;6176499;23;19931;-82
2022/05/06 14:48:09;;;;;;;;;;;;;;;19.64;46.00;102537.03;6156548;23;19925;-84
2022/05/06 14:50:35;;;;;;;;;;;;;;;19.65;45.95;102541.38;6130233;23;19924;-84
2022/05/06 14:53:07;;;;;;;;;;;;;;;19.66;46.06;102539.63;6105712;23;19904;-83
2022/05/06 14:55:33;;;;;;;;;;;;;;;19.66;45.83;102537.03;6190357;23;19907;-84
2022/05/06 14:57:58;;;;;;;;;;;;;;;19.66;46.02;102537.03;6190356;23;19939;-84
2022/05/06 15:05:34;;;;;;;;;;;;;;;19.69;46.04;102529.25;6160993;23;19905;-84
2022/05/06 15:23:30;;;;;;;;;;;;;;;19.70;45.98;102523.16;6147054;23;19921;-78
2022/05/06 15:25:55;;;;;;;;;;;;;;;19.72;46.25;102529.28;6111001;23;19992;-78
2022/05/06 15:28:21;;;;;;;;;;;;;;;19.72;46.08;102524.94;6112005;23;20324;-78
2022/05/06 15:30:47;;;;;;;;;;;;;;;19.73;45.92;102520.59;6111554;23;20301;-78
2022/05/06 15:33:13;;;;;;;;;;;;;;;19.73;46.01;102523.22;6135277;23;19916;-78
2022/05/06 15:35:38;;;;;;;;;;;;;;;19.74;46.06;102519.72;6110988;23;19913;-78
2022/05/06 15:38:03;;;;;;;;;;;;;;;19.74;46.18;102517.09;6135796;23;20269;-78
2022/05/06 15:40:30;;;;;;;;;;;;;;;19.74;46.07;102522.34;6134902;23;19972;-78
2022/05/06 15:42:56;;;;;;;;;;;;;;;19.75;46.04;102518.88;6112243;23;19913;-78
2022/05/06 15:45:21;;;;;;;;;;;;;;;19.75;46.06;102515.38;6136678;23;19917;-78
2022/05/06 15:47:46;;;;;;;;;;;;;;;19.76;46.14;102522.34;6112742;23;19974;-78
2022/05/06 15:50:12;;;;;;;;;;;;;;;19.77;46.03;102526.69;6113230;23;19919;-78
2022/05/06 15:52:37;;;;;;;;;;;;;;;19.76;46.12;102525.84;6136453;23;19916;-78
2022/05/06 15:55:02;;;;;;;;;;;;;;;19.77;46.21;102513.66;6137208;23;19913;-78
2022/05/06 15:57:28;;;;;;;;;;;;;;;19.77;46.05;102518.88;6111610;23;20329;-78
2022/05/06 15:59:53;;;;;;;;;;;;;;;19.78;46.13;102525.84;6112351;23;19917;-79
2022/05/06 16:02:19;;;;;;;;;;;;;;;19.78;46.23;102512.78;6136963;23;19995;-78
2022/05/06 16:04:44;;;;;;;;;;;;;;;19.78;46.11;102521.50;6134891;23;19959;-78
2022/05/06 16:07:09;;;;;;;;;;;;;;;19.77;46.19;102517.13;6110696;23;19948;-79
2022/05/06 16:09:34;;;;;;;;;;;;;;;19.77;46.14;102517.13;6133237;23;19909;-78
2022/05/06 16:12:00;;;;;;;;;;;;;;;19.78;46.13;102507.56;6109455;23;19912;-78
2022/05/06 16:17:09;;;;;;;;;;;;;;;19.78;45.94;102507.56;6139347;23;19919;-79
2022/05/06 16:19:34;;;;;;;;;;;;;;;19.77;46.11;102501.44;6135564;23;19932;-78
2022/05/06 16:21:59;;;;;;;;;;;;;;;19.77;46.04;102497.97;6110544;23;20322;-78
2022/05/06 16:24:25;;;;;;;;;;;;;;;19.78;46.06;102494.50;6159923;23;19921;-78
2022/05/06 16:26:50;;;;;;;;;;;;;;;19.78;46.25;102490.16;6133512;23;19908;-78
2022/05/06 16:29:16;;;;;;;;;;;;;;;19.78;46.20;102490.16;6108322;23;19912;-78
2022/05/06 16:31:41;;;;;;;;;;;;;;;19.78;46.18;102489.28;6133432;23;19951;-78
2022/05/06 16:39:34;;;;;;;;;;;;;;;19.78;46.15;102482.31;6160089;23;20360;-78
2022/05/06 16:41:59;;;;;;;;;;;;;;;19.78;46.21;102481.44;6108689;23;19916;-78
2022/05/06 16:44:25;;;;;;;;;;;;;;;19.78;46.24;102478.84;6108882;23;19913;-78
2022/05/06 16:46:50;;;;;;;;;;;;;;;19.79;46.33;102477.97;6108500;23;19991;-78
2022/05/06 16:49:16;;;;;;;;;;;;;;;19.78;46.31;102479.72;6157604;23;19916;-78
2022/05/06 16:51:41;;;;;;;;;;;;;;;19.79;46.28;102480.56;6108665;23;19948;-78
2022/05/06 16:54:06;;;;;;;;;;;;;;;19.78;46.28;102474.47;6108902;23;19948;-78
2022/05/06 16:56:32;;;;;;;;;;;;;;;19.77;46.22;102477.94;6159432;23;19912;-78
2022/05/06 16:58:57;;;;;;;;;;;;;;;19.78;46.34;102479.72;6132504;23;19928;-78
2022/05/06 17:01:22;;;;;;;;;;;;;;;19.79;46.31;102476.22;6108058;23;20333;-78
2022/05/06 17:03:48;;;;;;;;;;;;;;;19.78;46.24;102471.88;6109246;23;20380;-78
2022/05/06 17:06:13;;;;;;;;;;;;;;;19.77;46.21;102475.31;6117398;23;19912;-79
2022/05/06 17:08:38;;;;;;;;;;;;;;;19.78;46.32;102469.25;6119958;23;19913;-79
2022/05/06 17:11:09;;;;;;;;;;;;;;;19.78;46.26;102471.88;6117877;23;19913;-78
2022/05/06 17:13:36;;;;;;;;;;;;;;;19.78;46.34;102474.47;6163100;23;19948;-78
2022/05/06 17:16:01;;;;;;;;;;;;;;;19.77;46.11;102467.50;6164511;23;19928;-78
2022/05/06 17:18:27;;;;;;;;;;;;;;;19.76;46.28;102470.97;6112121;23;19920;-78
2022/05/06 17:20:53;;;;;;;;;;;;;;;19.76;46.25;102462.28;6111016;23;19943;-78
2022/05/06 17:23:18;;;;;;;;;;;;;;;19.76;46.13;102464.88;6135000;23;19959;-78
2022/05/06 17:25:45;;;;;;;;;;;;;;;19.76;46.13;102457.06;6134791;23;19908;-78
2022/05/06 17:28:11;;;;;;;;;;;;;;;19.75;46.15;102458.81;6133501;23;20214;-77
2022/05/06 17:30:37;;;;;;;;;;;;;;;19.75;46.11;102463.13;6108812;23;19913;-78
2022/05/06 17:33:02;;;;;;;;;;;;;;;19.75;46.26;102468.34;6133229;23;19943;-78
2022/05/06 17:35:27;;;;;;;;;;;;;;;19.73;46.13;102463.13;6108722;23;19919;-78
2022/05/06 17:37:53;;;;;;;;;;;;;;;19.73;46.17;102465.75;6108015;23;19928;-78
2022/05/06 17:40:18;;;;;;;;;;;;;;;19.73;46.12;102466.63;6109347;23;20330;-78
2022/05/06 17:42:43;;;;;;;;;;;;;;;19.73;46.17;102464.00;6109255;23;20325;-78
2022/05/06 17:45:09;;;;;;;;;;;;;;;19.73;46.22;102466.63;6111867;23;19913;-78
2022/05/06 17:47:35;;;;;;;;;;;;;;;19.71;46.08;102460.50;6115006;23;19912;-78
2022/05/06 17:50:01;;;;;;;;;;;;;;;19.71;46.12;102460.50;6166024;23;19956;-78
2022/05/06 17:52:26;;;;;;;;;;;;;;;19.71;46.07;102459.63;6140385;23;19912;-78
2022/05/06 17:54:51;;;;;;;;;;;;;;;19.71;46.17;102465.72;6114326;23;19917;-78
2022/05/06 17:57:16;;;;;;;;;;;;;;;19.71;46.09;102462.25;6136738;23;19916;-78
2022/05/06 18:01:15;;;;;;;;;;;;;;;19.70;46.11;102463.97;6136575;23;19924;-78
2022/05/06 18:02:27;;;;;;;;;;;;;;;19.70;46.09;102465.72;6161771;23;19939;-78
2022/05/06 18:04:53;;;;;;;;;;;;;;;19.69;46.06;102457.00;6112420;23;19913;-78
2022/05/06 18:07:18;;;;;;;;;;;;;;;19.70;46.06;102457.88;6110248;23;19912;-78
2022/05/06 18:09:43;;;;;;;;;;;;;;;19.70;46.22;102460.47;6109703;23;20245;-78
2022/05/06 18:12:09;;;;;;;;;;;;;;;19.69;45.95;102451.78;6134712;23;19955;-78
2022/05/06 18:14:34;;;;;;;;;;;;;;;19.67;46.08;102456.09;6133955;23;19912;-78
2022/05/06 18:16:59;;;;;;;;;;;;;;;19.68;46.01;102463.03;6110563;23;20313;-78
2022/05/06 18:19:24;;;;;;;;;;;;;;;19.68;46.10;102460.44;6107870;23;20367;-78
2022/05/06 18:21:49;;;;;;;;;;;;;;;19.68;46.05;102462.19;6108134;23;19991;-78
2022/05/06 18:24:15;;;;;;;;;;;;;;;19.67;46.10;102460.44;6132400;23;20404;-78
2022/05/06 18:26:41;;;;;;;;;;;;;;;19.67;46.13;102463.91;6133605;23;19912;-79
2022/05/06 18:29:07;;;;;;;;;;;;;;;19.66;46.08;102462.19;6109465;23;19944;-80
2022/05/06 18:34:16;;;;;;;;;;;;;;;19.65;46.07;102457.81;6136725;23;19984;-79
2022/05/06 18:36:41;;;;;;;;;;;;;;;19.65;46.09;102463.03;6107137;23;19916;-79
2022/05/06 18:39:06;;;;;;;;;;;;;;;19.65;46.11;102452.59;6107473;23;19924;-79